createdAt,value
2018-09-18T00:00:25.022Z,36.86
2018-09-18T00:02:54.120Z,36.65
2018-09-18T00:05:23.180Z,36.32
2018-09-18T00:07:52.290Z,36.65
2018-09-18T00:10:21.410Z,36.58
2018-09-18T00:12:52.164Z,36.75
2018-09-18T00:15:21.272Z,36.74
2018-09-18T00:17:50.354Z,36.87
2018-09-18T00:20:19.390Z,36.78
2018-09-18T00:22:48.506Z,37.13
2018-09-18T00:25:17.589Z,36.98
2018-09-18T00:27:46.710Z,37.15
2018-09-18T00:30:15.816Z,37.06
2018-09-18T00:32:45.056Z,36.92
2018-09-18T00:35:14.191Z,36.90
2018-09-18T00:37:43.463Z,37.26
2018-09-18T00:40:12.571Z,36.62
2018-09-18T00:42:41.706Z,37.08
2018-09-18T00:45:10.896Z,36.95
2018-09-18T00:47:39.998Z,36.91
2018-09-18T00:50:09.070Z,36.79
2018-09-18T00:52:38.114Z,36.75
2018-09-18T00:55:07.174Z,36.80
2018-09-18T00:57:36.270Z,36.43
2018-09-18T01:00:05.544Z,36.59
2018-09-18T01:02:34.630Z,36.36
2018-09-18T01:05:03.748Z,36.95
2018-09-18T01:07:32.914Z,36.88
2018-09-18T01:10:02.013Z,37.05
2018-09-18T01:12:31.146Z,36.81
2018-09-18T01:15:00.260Z,36.76
2018-09-18T01:17:29.315Z,36.92
2018-09-18T01:19:58.438Z,37.47
2018-09-18T01:22:27.650Z,36.99
2018-09-18T01:24:56.708Z,37.14
2018-09-18T01:27:25.840Z,36.87
2018-09-18T01:29:54.895Z,36.96
2018-09-18T01:32:24.014Z,37.15
2018-09-18T01:34:53.078Z,36.95
2018-09-18T01:37:22.202Z,37.20
2018-09-18T01:39:51.307Z,37.10
2018-09-18T01:42:20.445Z,37.50
2018-09-18T01:44:50.299Z,37.38
2018-09-18T01:47:19.386Z,37.34
2018-09-18T01:49:48.487Z,37.26
2018-09-18T01:52:17.566Z,37.05
2018-09-18T01:54:46.630Z,37.42
2018-09-18T01:57:15.917Z,37.10
2018-09-18T01:59:45.327Z,37.49
2018-09-18T02:02:14.495Z,37.21
2018-09-18T02:04:43.633Z,37.51
2018-09-18T02:07:12.899Z,37.38
2018-09-18T02:09:41.975Z,37.71
2018-09-18T02:12:11.106Z,37.54
2018-09-18T02:14:40.191Z,37.63
2018-09-18T02:17:09.239Z,37.80
2018-09-18T02:19:38.299Z,37.78
2018-09-18T02:22:07.359Z,37.61
2018-09-18T02:24:36.826Z,37.82
2018-09-18T02:27:06.139Z,37.86
2018-09-18T02:29:35.260Z,37.68
2018-09-18T02:32:04.323Z,37.56
2018-09-18T02:34:33.443Z,37.70
2018-09-18T02:37:02.555Z,37.42
2018-09-18T02:39:31.671Z,37.74
2018-09-18T02:42:00.771Z,37.78
2018-09-18T02:44:29.830Z,37.72
2018-09-18T02:46:58.957Z,37.49
2018-09-18T02:49:28.157Z,37.52
2018-09-18T02:51:57.174Z,37.39
2018-09-18T02:54:26.223Z,37.47
2018-09-18T02:56:55.299Z,37.47
2018-09-18T02:59:25.218Z,37.36
2018-09-18T03:01:54.349Z,37.47
2018-09-18T03:04:23.615Z,37.33
2018-09-18T03:06:52.739Z,37.42
2018-09-18T03:09:21.836Z,37.10
2018-09-18T03:11:50.903Z,37.50
2018-09-18T03:14:19.995Z,37.31
2018-09-18T03:16:49.133Z,37.08
2018-09-18T03:19:18.197Z,37.43
2018-09-18T03:21:47.399Z,37.26
2018-09-18T03:24:16.531Z,37.51
2018-09-18T03:26:45.591Z,37.61
2018-09-18T03:29:14.708Z,37.71
2018-09-18T03:31:43.812Z,37.34
2018-09-18T03:34:12.868Z,37.76
2018-09-18T03:36:41.940Z,37.74
2018-09-18T03:39:10.999Z,37.65
2018-09-18T03:41:40.051Z,37.59
2018-09-18T03:44:09.120Z,38.02
2018-09-18T03:46:38.203Z,37.95
2018-09-18T03:49:07.347Z,37.83
2018-09-18T03:51:36.459Z,37.75
2018-09-18T03:54:05.572Z,37.70
2018-09-18T03:56:34.652Z,38.08
2018-09-18T03:59:03.867Z,37.77
2018-09-18T04:01:32.935Z,38.02
2018-09-18T04:04:02.061Z,38.15
2018-09-18T04:06:31.135Z,37.64
2018-09-18T04:09:00.236Z,38.11
2018-09-18T04:11:29.389Z,37.78
2018-09-18T04:13:58.321Z,38.13
2018-09-18T04:16:27.318Z,38.13
2018-09-18T04:18:56.409Z,37.96
2018-09-18T04:21:42.593Z,38.32
2018-09-18T04:24:11.705Z,38.33
2018-09-18T04:26:41.575Z,38.34
2018-09-18T04:29:10.864Z,38.26
2018-09-18T04:31:41.096Z,38.31
2018-09-18T04:34:10.256Z,38.46
2018-09-18T04:36:39.301Z,38.59
2018-09-18T04:39:09.881Z,38.70
2018-09-18T04:41:38.936Z,38.51
2018-09-18T04:44:08.612Z,38.56
2018-09-18T04:46:37.603Z,38.47
2018-09-18T04:49:06.688Z,38.25
2018-09-18T04:51:35.660Z,38.69
2018-09-18T04:54:04.724Z,38.48
2018-09-18T04:56:33.860Z,38.62
2018-09-18T04:59:02.932Z,38.68
2018-09-18T05:01:32.014Z,38.48
2018-09-18T05:04:01.066Z,38.68
2018-09-18T05:06:30.116Z,38.88
2018-09-18T05:08:59.442Z,38.61
2018-09-18T05:11:28.502Z,39.10
2018-09-18T05:13:57.779Z,38.96
2018-09-18T05:16:27.009Z,39.10
2018-09-18T05:18:56.025Z,38.74
2018-09-18T05:21:25.099Z,39.01
2018-09-18T05:23:54.210Z,38.92
2018-09-18T05:26:23.299Z,38.95
2018-09-18T05:28:52.367Z,39.44
2018-09-18T05:31:21.511Z,39.33
2018-09-18T05:33:50.666Z,39.17
2018-09-18T05:36:19.880Z,39.34
2018-09-18T05:38:48.980Z,39.10
2018-09-18T05:41:18.100Z,39.38
2018-09-18T05:43:47.394Z,39.24
2018-09-18T05:46:16.460Z,39.33
2018-09-18T05:48:45.592Z,39.33
2018-09-18T05:51:14.660Z,39.44
2018-09-18T05:53:43.760Z,39.25
2018-09-18T05:56:12.878Z,39.21
2018-09-18T05:58:41.954Z,39.29
2018-09-18T06:01:11.021Z,39.23
2018-09-18T06:03:40.190Z,39.52
2018-09-18T06:06:09.336Z,39.25
2018-09-18T06:08:38.405Z,39.38
2018-09-18T06:11:07.658Z,39.20
2018-09-18T06:13:36.728Z,39.35
2018-09-18T06:16:05.784Z,39.23
2018-09-18T06:18:35.017Z,39.54
2018-09-18T06:21:04.265Z,39.24
2018-09-18T06:23:33.330Z,39.54
2018-09-18T06:26:02.407Z,39.71
2018-09-18T06:28:31.738Z,39.51
2018-09-18T06:31:00.732Z,39.37
2018-09-18T06:33:29.767Z,39.40
2018-09-18T06:35:58.851Z,39.15
2018-09-18T06:38:28.040Z,39.54
2018-09-18T06:40:57.118Z,39.38
2018-09-18T06:43:26.212Z,39.39
2018-09-18T06:45:55.308Z,39.17
2018-09-18T06:48:24.345Z,39.28
2018-09-18T06:50:53.500Z,39.44
2018-09-18T06:53:22.596Z,39.61
2018-09-18T06:55:51.639Z,39.34
2018-09-18T06:58:20.774Z,39.16
2018-09-18T07:00:49.865Z,39.14
2018-09-18T07:03:18.971Z,39.22
2018-09-18T07:05:48.027Z,39.14
2018-09-18T07:08:17.378Z,39.31
2018-09-18T07:10:46.473Z,39.69
2018-09-18T07:13:15.670Z,39.47
2018-09-18T07:15:45.871Z,39.35
2018-09-18T07:18:14.982Z,39.29
2018-09-18T07:20:44.093Z,39.11
2018-09-18T07:23:13.374Z,39.08
2018-09-18T07:25:42.444Z,39.11
2018-09-18T07:28:11.932Z,39.22
2018-09-18T07:30:41.008Z,39.14
2018-09-18T07:33:10.152Z,39.48
2018-09-18T07:35:39.244Z,39.34
2018-09-18T07:38:08.423Z,39.02
2018-09-18T07:40:37.466Z,39.16
2018-09-18T07:43:06.498Z,39.42
2018-09-18T07:45:35.761Z,39.29
2018-09-18T07:48:05.065Z,39.39
2018-09-18T07:50:34.168Z,39.12
2018-09-18T07:53:03.240Z,39.37
2018-09-18T07:55:32.300Z,39.19
2018-09-18T07:58:01.445Z,39.38
2018-09-18T08:00:30.956Z,39.03
2018-09-18T08:03:00.052Z,38.98
2018-09-18T08:05:29.347Z,39.11
2018-09-18T08:07:58.444Z,39.12
2018-09-18T08:10:27.523Z,39.13
2018-09-18T08:12:56.615Z,39.15
2018-09-18T08:15:25.732Z,39.19
2018-09-18T08:17:54.827Z,38.96
2018-09-18T08:20:23.915Z,39.37
2018-09-18T08:22:52.907Z,39.34
2018-09-18T08:25:22.345Z,39.19
2018-09-18T08:27:51.658Z,39.16
2018-09-18T08:30:20.799Z,39.38
2018-09-18T08:32:49.882Z,38.98
2018-09-18T08:35:19.216Z,38.86
2018-09-18T08:37:48.309Z,39.16
2018-09-18T08:40:17.411Z,39.13
2018-09-18T08:42:46.480Z,39.01
2018-09-18T08:45:15.703Z,39.31
2018-09-18T08:47:44.830Z,39.01
2018-09-18T08:50:14.070Z,39.35
2018-09-18T08:52:43.220Z,39.16
2018-09-18T08:55:12.474Z,39.14
2018-09-18T08:57:41.776Z,39.39
2018-09-18T09:00:11.115Z,39.23
2018-09-18T09:02:40.360Z,39.55
2018-09-18T09:05:09.616Z,39.38
2018-09-18T09:07:39.043Z,39.49
2018-09-18T09:10:08.260Z,39.20
2018-09-18T09:12:37.499Z,39.71
2018-09-18T09:15:06.876Z,39.43
2018-09-18T09:17:36.223Z,39.35
2018-09-18T09:20:05.720Z,39.54
2018-09-18T09:22:35.010Z,39.62
2018-09-18T09:25:04.169Z,39.42
2018-09-18T09:27:33.207Z,39.54
2018-09-18T09:30:02.572Z,39.70
2018-09-18T09:32:31.904Z,39.70
2018-09-18T09:35:01.004Z,40.04
2018-09-18T09:37:30.289Z,40.03
2018-09-18T09:39:59.397Z,39.67
2018-09-18T09:42:28.380Z,39.94
2018-09-18T09:44:57.505Z,39.89
2018-09-18T09:47:26.790Z,40.24
2018-09-18T09:49:55.883Z,40.40
2018-09-18T09:52:24.955Z,39.93
2018-09-18T09:54:54.033Z,40.38
2018-09-18T09:57:23.105Z,40.13
2018-09-18T09:59:52.258Z,40.06
2018-09-18T10:02:26.893Z,40.57
2018-09-18T10:04:56.177Z,40.24
2018-09-18T10:07:25.287Z,40.46
2018-09-18T10:09:54.371Z,40.58
2018-09-18T10:12:23.480Z,40.50
2018-09-18T10:14:52.555Z,40.59
2018-09-18T10:17:21.662Z,40.56
2018-09-18T10:19:50.751Z,40.63
2018-09-18T10:22:19.843Z,40.91
2018-09-18T10:24:48.959Z,40.45
2018-09-18T10:27:18.059Z,40.61
2018-09-18T10:29:47.160Z,41.03
2018-09-18T10:32:16.534Z,40.94
2018-09-18T10:34:45.870Z,40.82
2018-09-18T10:37:15.054Z,41.02
2018-09-18T10:39:44.148Z,41.05
2018-09-18T10:42:13.309Z,40.82
2018-09-18T10:44:42.635Z,41.61
2018-09-18T10:47:11.918Z,41.16
2018-09-18T10:49:41.251Z,41.36
2018-09-18T10:52:10.247Z,41.66
2018-09-18T10:54:39.652Z,42.25
2018-09-18T10:57:08.717Z,41.51
2018-09-18T10:59:37.803Z,41.58
2018-09-18T11:02:07.392Z,41.52
2018-09-18T11:04:36.593Z,41.24
2018-09-18T11:07:06.151Z,41.65
2018-09-18T11:09:35.484Z,42.28
2018-09-18T11:12:04.751Z,42.38
2018-09-18T11:14:33.898Z,42.02
2018-09-18T11:17:03.160Z,41.70
2018-09-18T11:19:32.224Z,41.63
2018-09-18T11:22:01.570Z,41.71
2018-09-18T11:24:30.843Z,41.61
2018-09-18T11:26:59.939Z,41.62
2018-09-18T11:29:29.072Z,41.92
2018-09-18T11:31:58.243Z,42.03
2018-09-18T11:34:27.639Z,42.24
2018-09-18T11:36:56.823Z,42.33
2018-09-18T11:39:25.939Z,42.34
2018-09-18T11:41:55.025Z,42.15
2018-09-18T11:44:24.263Z,42.12
2018-09-18T11:46:53.532Z,42.32
2018-09-18T11:49:22.931Z,42.45
2018-09-18T11:51:52.164Z,42.18
2018-09-18T11:54:21.293Z,42.35
2018-09-18T11:56:50.528Z,42.26
2018-09-18T11:59:19.731Z,42.03
2018-09-18T12:01:49.151Z,42.42
2018-09-18T12:04:18.583Z,42.34
2018-09-18T12:06:47.730Z,42.30
2018-09-18T12:09:16.868Z,42.74
2018-09-18T12:11:46.108Z,42.47
2018-09-18T12:14:15.231Z,42.57
2018-09-18T12:16:44.303Z,42.38
2018-09-18T12:19:13.575Z,42.60
2018-09-18T12:21:42.926Z,42.54
2018-09-18T12:24:12.117Z,42.45
2018-09-18T12:26:41.227Z,42.46
2018-09-18T12:29:10.285Z,42.45
2018-09-18T12:31:39.391Z,42.38
2018-09-18T12:34:08.497Z,42.84
2018-09-18T12:36:37.591Z,42.50
2018-09-18T12:39:08.339Z,42.54
2018-09-18T12:41:37.982Z,42.49
2018-09-18T12:44:07.301Z,42.23
2018-09-18T12:46:36.479Z,42.81
2018-09-18T12:49:05.858Z,42.80
2018-09-18T12:51:35.088Z,42.50
2018-09-18T12:54:04.403Z,42.40
2018-09-18T12:56:33.629Z,42.51
2018-09-18T12:59:02.701Z,42.37
2018-09-18T13:01:31.803Z,42.82
2018-09-18T13:04:00.920Z,43.12
2018-09-18T13:06:30.414Z,42.72
2018-09-18T13:08:59.541Z,42.76
2018-09-18T13:11:28.735Z,42.51
2018-09-18T13:13:57.868Z,42.42
2018-09-18T13:16:27.261Z,42.46
2018-09-18T13:18:56.552Z,42.73
2018-09-18T13:21:25.627Z,42.74
2018-09-18T13:23:54.720Z,42.72
2018-09-18T13:26:23.818Z,42.49
2018-09-18T13:28:52.993Z,42.65
2018-09-18T13:31:22.072Z,42.44
2018-09-18T13:33:51.477Z,42.86
2018-09-18T13:36:20.768Z,42.52
2018-09-18T13:38:51.116Z,43.00
2018-09-18T13:41:20.322Z,42.92
2018-09-18T13:43:49.499Z,42.68
2018-09-18T13:46:18.666Z,43.21
2018-09-18T13:48:47.908Z,43.23
2018-09-18T13:51:17.164Z,43.01
2018-09-18T13:53:46.304Z,42.92
2018-09-18T13:56:15.483Z,43.11
2018-09-18T13:58:44.726Z,42.63
2018-09-18T14:01:13.808Z,42.82
2018-09-18T14:03:43.044Z,43.06
2018-09-18T14:06:12.116Z,42.90
2018-09-18T14:08:41.192Z,42.89
2018-09-18T14:11:10.293Z,43.39
2018-09-18T14:13:39.512Z,43.38
2018-09-18T14:16:09.098Z,43.78
2018-09-18T14:18:38.190Z,43.22
2018-09-18T14:21:07.589Z,43.06
2018-09-18T14:23:36.656Z,43.59
2018-09-18T14:26:05.786Z,43.72
2018-09-18T14:28:37.065Z,43.54
2018-09-18T14:31:06.431Z,43.71
2018-09-18T14:33:35.744Z,43.70
2018-09-18T14:36:04.926Z,43.10
2018-09-18T14:38:34.046Z,43.69
2018-09-18T14:41:03.149Z,43.22
2018-09-18T14:43:32.219Z,43.43
2018-09-18T14:46:01.264Z,43.24
2018-09-18T14:48:30.430Z,42.99
2018-09-18T14:50:59.552Z,43.34
2018-09-18T14:53:28.773Z,43.46
2018-09-18T14:55:57.913Z,43.60
2018-09-18T14:58:26.980Z,43.57
2018-09-18T15:00:56.104Z,43.79
2018-09-18T15:03:25.203Z,43.54
2018-09-18T15:05:54.307Z,43.78
2018-09-18T15:08:23.406Z,43.65
2018-09-18T15:10:52.482Z,44.24
2018-09-18T15:13:21.576Z,44.69
2018-09-18T15:15:50.855Z,44.02
2018-09-18T15:18:20.308Z,43.81
2018-09-18T15:20:49.409Z,44.11
2018-09-18T15:23:18.500Z,43.70
2018-09-18T15:25:47.643Z,44.01
2018-09-18T15:28:16.792Z,43.84
2018-09-18T15:30:45.882Z,44.02
2018-09-18T15:33:14.940Z,44.15
2018-09-18T15:35:44.052Z,44.25
2018-09-18T15:38:13.134Z,44.17
2018-09-18T15:40:42.370Z,43.87
2018-09-18T15:43:11.493Z,43.90
2018-09-18T15:45:40.882Z,44.36
2018-09-18T15:48:10.145Z,43.94
2018-09-18T15:50:39.210Z,44.06
2018-09-18T15:53:08.347Z,44.01
2018-09-18T15:55:37.427Z,43.96
2018-09-18T15:58:06.554Z,44.00
2018-09-18T16:00:35.648Z,43.89
2018-09-18T16:03:04.888Z,43.87
2018-09-18T16:05:34.045Z,44.07
2018-09-18T16:08:03.210Z,43.83
2018-09-18T16:10:32.339Z,43.61
2018-09-18T16:13:01.411Z,43.45
2018-09-18T16:15:30.560Z,43.72
2018-09-18T16:17:59.804Z,43.44
2018-09-18T16:20:28.893Z,43.75
2018-09-18T16:22:58.115Z,43.47
2018-09-18T16:25:27.284Z,43.47
2018-09-18T16:27:56.520Z,43.58
2018-09-18T16:30:25.596Z,43.92
2018-09-18T16:32:54.695Z,43.67
2018-09-18T16:35:23.788Z,44.19
2018-09-18T16:37:52.882Z,44.00
2018-09-18T16:40:22.068Z,44.01
2018-09-18T16:42:51.271Z,43.80
2018-09-18T16:45:20.381Z,44.43
2018-09-18T16:47:49.742Z,44.82
2018-09-18T16:50:18.830Z,44.40
2018-09-18T16:52:47.934Z,44.20
2018-09-18T16:55:17.019Z,44.77
2018-09-18T16:57:46.254Z,44.56
2018-09-18T17:00:15.381Z,44.60
2018-09-18T17:02:44.456Z,44.98
2018-09-18T17:05:13.541Z,45.11
2018-09-18T17:07:42.775Z,44.79
2018-09-18T17:10:11.846Z,44.90
2018-09-18T17:12:41.010Z,44.49
2018-09-18T17:15:10.368Z,44.99
2018-09-18T17:17:39.448Z,45.04
2018-09-18T17:20:08.693Z,44.42
2018-09-18T17:22:37.907Z,44.48
2018-09-18T17:25:07.160Z,44.27
2018-09-18T17:27:36.355Z,44.92
2018-09-18T17:30:05.417Z,45.07
2018-09-18T17:32:34.501Z,45.17
2018-09-18T17:35:03.848Z,44.63
2018-09-18T17:37:32.912Z,44.39
2018-09-18T17:40:02.068Z,45.05
2018-09-18T17:42:31.322Z,45.26
2018-09-18T17:45:00.417Z,44.99
2018-09-18T17:47:29.546Z,45.30
2018-09-18T17:49:58.820Z,44.95
2018-09-18T17:52:28.140Z,44.84
2018-09-18T17:54:57.324Z,44.63
2018-09-18T17:57:26.380Z,44.72
2018-09-18T17:59:55.508Z,44.43
2018-09-18T18:02:24.615Z,45.15
2018-09-18T18:04:53.709Z,45.13
2018-09-18T18:07:22.786Z,44.63
2018-09-18T18:09:52.043Z,45.18
2018-09-18T18:12:21.187Z,45.21
2018-09-18T18:14:50.260Z,45.33
2018-09-18T18:17:19.410Z,44.80
2018-09-18T18:19:48.676Z,44.83
2018-09-18T18:22:18.188Z,44.74
2018-09-18T18:24:47.309Z,44.69
2018-09-18T18:27:16.374Z,44.78
2018-09-18T18:29:45.462Z,44.53
2018-09-18T18:32:14.527Z,44.69
2018-09-18T18:34:43.634Z,44.46
2018-09-18T18:37:12.759Z,44.35
2018-09-18T18:39:41.836Z,44.43
2018-09-18T18:42:10.978Z,44.35
2018-09-18T18:44:40.045Z,44.36
2018-09-18T18:47:09.165Z,44.31
2018-09-18T18:49:39.186Z,44.58
2018-09-18T18:52:08.238Z,44.38
2018-09-18T18:54:37.420Z,44.33
2018-09-18T18:57:06.835Z,44.51
2018-09-18T18:59:35.972Z,44.25
2018-09-18T19:02:05.255Z,44.22
2018-09-18T19:04:34.356Z,44.46
2018-09-18T19:07:03.500Z,44.63
2018-09-18T19:09:32.741Z,44.58
2018-09-18T19:12:01.889Z,44.39
2018-09-18T19:14:31.118Z,44.29
2018-09-18T19:17:00.270Z,44.40
2018-09-18T19:19:29.586Z,44.21
2018-09-18T19:21:58.675Z,44.30
2018-09-18T19:24:27.906Z,44.51
2018-09-18T19:26:57.104Z,44.16
2018-09-18T19:29:26.369Z,44.18
2018-09-18T19:31:55.759Z,44.56
2018-09-18T19:34:24.927Z,44.23
2018-09-18T19:36:54.257Z,44.58
2018-09-18T19:39:23.644Z,44.42
2018-09-18T19:41:52.857Z,44.61
2018-09-18T19:44:21.961Z,44.31
2018-09-18T19:46:51.131Z,44.20
2018-09-18T19:49:20.285Z,44.50
2018-09-18T19:51:49.402Z,44.39
2018-09-18T19:54:18.719Z,44.12
2018-09-18T19:56:47.817Z,44.33
2018-09-18T19:59:16.938Z,44.30
2018-09-18T20:01:46.271Z,44.41
2018-09-18T20:04:15.553Z,44.42
2018-09-18T20:06:44.627Z,44.36
2018-09-18T20:09:13.765Z,44.49
2018-09-18T20:11:43.143Z,44.65
2018-09-18T20:14:12.428Z,44.54
2018-09-18T20:16:41.565Z,44.69
2018-09-18T20:19:11.044Z,44.17
2018-09-18T20:21:40.141Z,44.25
2018-09-18T20:24:09.238Z,44.66
2018-09-18T20:26:38.405Z,44.56
2018-09-18T20:29:07.873Z,44.62
2018-09-18T20:31:37.053Z,44.23
2018-09-18T20:34:06.430Z,44.42
2018-09-18T20:36:35.577Z,44.66
2018-09-18T20:39:06.488Z,44.70
2018-09-18T20:41:35.705Z,44.66
2018-09-18T20:44:05.195Z,44.22
2018-09-18T20:49:26.618Z,44.37
2018-09-18T20:51:55.736Z,44.40
2018-09-18T20:54:25.592Z,44.50
2018-09-18T20:56:54.912Z,44.64
2018-09-18T20:59:24.021Z,44.82
2018-09-18T21:01:53.208Z,44.59
2018-09-18T21:04:22.826Z,44.52
2018-09-18T21:06:52.023Z,44.40
2018-09-18T21:09:21.213Z,44.57
2018-09-18T21:11:50.429Z,44.45
2018-09-18T21:14:19.527Z,44.59
2018-09-18T21:16:48.686Z,44.32
2018-09-18T21:19:17.818Z,44.33
2018-09-18T21:21:47.020Z,44.71
2018-09-18T21:24:16.948Z,44.29
2018-09-18T21:26:46.038Z,44.37
2018-09-18T21:29:16.114Z,44.69
2018-09-18T21:31:45.240Z,44.40
2018-09-18T21:34:14.555Z,44.25
2018-09-18T21:36:43.710Z,44.70
2018-09-18T21:39:12.807Z,44.32
2018-09-18T21:41:41.900Z,44.43
2018-09-18T21:44:11.023Z,44.52
2018-09-18T21:46:40.220Z,44.61
2018-09-18T21:49:09.305Z,44.32
2018-09-18T21:51:38.387Z,44.38
2018-09-18T21:54:07.521Z,44.69
2018-09-18T21:56:36.678Z,44.46
2018-09-18T21:59:05.770Z,44.64
2018-09-18T22:01:34.864Z,44.63
2018-09-18T22:04:03.942Z,44.71
2018-09-18T22:06:33.174Z,44.15
2018-09-18T22:09:02.396Z,44.56
2018-09-18T22:11:31.473Z,44.35
2018-09-18T22:14:00.599Z,44.55
2018-09-18T22:16:29.666Z,44.30
2018-09-18T22:18:58.766Z,44.78
2018-09-18T22:21:27.868Z,44.47
2018-09-18T22:23:56.943Z,44.82
2018-09-18T22:26:26.051Z,44.70
2018-09-18T22:28:55.544Z,44.36
2018-09-18T22:31:24.646Z,44.84
2018-09-18T22:33:53.814Z,44.54
2018-09-18T22:36:22.880Z,44.80
2018-09-18T22:38:51.962Z,44.83
2018-09-18T22:41:21.266Z,44.64
2018-09-18T22:43:50.448Z,44.79
2018-09-18T22:46:19.617Z,44.72
2018-09-18T22:48:48.703Z,44.60
2018-09-18T22:51:17.984Z,44.55
2018-09-18T22:53:47.140Z,44.66
2018-09-18T22:56:17.340Z,44.66
2018-09-18T22:58:46.456Z,44.63
2018-09-18T23:01:15.518Z,44.67
2018-09-18T23:03:44.781Z,44.64
2018-09-18T23:06:14.112Z,44.76
2018-09-18T23:08:43.527Z,44.36
2018-09-18T23:11:12.636Z,44.57
2018-09-18T23:13:41.745Z,44.62
2018-09-18T23:16:10.841Z,44.47
2018-09-18T23:18:39.953Z,44.49
2018-09-18T23:21:09.218Z,44.33
2018-09-18T23:23:38.420Z,44.40
2018-09-18T23:26:07.510Z,44.42
2018-09-18T23:28:36.606Z,44.57
2018-09-18T23:31:05.720Z,44.56
2018-09-18T23:33:34.782Z,44.72
2018-09-18T23:36:03.952Z,44.40
2018-09-18T23:38:33.299Z,44.63
2018-09-18T23:41:02.358Z,44.78
2018-09-18T23:43:31.523Z,44.35
2018-09-18T23:46:00.580Z,44.47
2018-09-18T23:48:29.816Z,44.56
2018-09-18T23:50:59.097Z,44.74
2018-09-18T23:53:28.187Z,44.44
2018-09-18T23:55:57.267Z,44.34
2018-09-18T23:58:26.544Z,44.38
